createdAt,value
2016-11-30T00:00:57.653Z,0
2016-11-30T00:01:57.619Z,0
2016-11-30T00:02:57.730Z,0
2016-11-30T00:03:57.488Z,0
2016-11-30T00:04:57.599Z,0
2016-11-30T00:05:57.551Z,0
2016-11-30T00:06:58.015Z,0
2016-11-30T00:07:57.447Z,0
2016-11-30T00:08:57.728Z,0
2016-11-30T00:09:58.148Z,0
2016-11-30T00:10:57.800Z,0
2016-11-30T00:11:57.573Z,0
2016-11-30T00:12:57.808Z,0
2016-11-30T00:13:57.546Z,0
2016-11-30T00:14:57.632Z,0
2016-11-30T00:15:58.632Z,0
2016-11-30T00:16:57.843Z,0
2016-11-30T00:17:57.612Z,0
2016-11-30T00:18:57.538Z,0
2016-11-30T00:19:57.910Z,0
2016-11-30T00:20:57.677Z,0
2016-11-30T00:21:57.679Z,0
2016-11-30T00:22:57.679Z,0
2016-11-30T00:23:57.442Z,0
2016-11-30T00:24:57.571Z,0
2016-11-30T00:25:57.655Z,0
2016-11-30T00:26:57.510Z,0
2016-11-30T00:32:14.159Z,0
2016-11-30T00:32:24.291Z,0
2016-11-30T00:33:24.249Z,0
2016-11-30T00:34:24.764Z,0
2016-11-30T00:35:24.340Z,0
2016-11-30T00:36:24.591Z,0
2016-11-30T00:37:24.221Z,0
2016-11-30T00:38:24.385Z,0
2016-11-30T00:39:24.385Z,0
2016-11-30T00:40:24.636Z,0
2016-11-30T00:41:25.996Z,0
2016-11-30T00:42:25.545Z,0
2016-11-30T00:43:24.315Z,0
2016-11-30T00:44:24.218Z,0
2016-11-30T00:45:25.235Z,0
2016-11-30T00:46:25.456Z,0
2016-11-30T00:47:25.324Z,0
2016-11-30T00:48:24.654Z,0
2016-11-30T00:49:24.820Z,0
2016-11-30T00:50:24.971Z,0
2016-11-30T00:51:24.508Z,0
2016-11-30T00:52:24.276Z,0
2016-11-30T00:53:25.063Z,0
2016-11-30T00:54:24.623Z,0
2016-11-30T00:55:25.217Z,0
2016-11-30T00:56:25.160Z,0
2016-11-30T00:57:24.301Z,0
2016-11-30T00:58:24.686Z,0
2016-11-30T00:59:24.386Z,0
2016-11-30T01:00:24.256Z,0
2016-11-30T01:01:24.329Z,0
2016-11-30T01:02:24.357Z,0
2016-11-30T01:03:24.375Z,0
2016-11-30T01:04:24.600Z,0
2016-11-30T01:05:24.490Z,0
2016-11-30T01:06:26.258Z,0
2016-11-30T01:07:24.418Z,0
2016-11-30T01:08:24.375Z,0
2016-11-30T01:09:24.310Z,0
2016-11-30T01:10:24.373Z,0
2016-11-30T01:11:24.539Z,0
2016-11-30T01:12:25.087Z,0
2016-11-30T01:13:24.380Z,0
2016-11-30T01:14:24.914Z,0
2016-11-30T01:15:24.811Z,0
2016-11-30T01:16:24.195Z,0
2016-11-30T01:17:24.351Z,0
2016-11-30T01:18:24.923Z,0
2016-11-30T01:19:24.291Z,0
2016-11-30T01:20:24.380Z,0
2016-11-30T01:21:24.275Z,0
2016-11-30T01:22:24.462Z,0
2016-11-30T01:23:24.603Z,0
2016-11-30T01:24:24.374Z,0
2016-11-30T01:25:24.932Z,0
2016-11-30T01:26:25.372Z,0
2016-11-30T01:27:24.694Z,0
2016-11-30T01:28:24.422Z,0
2016-11-30T01:29:24.613Z,0
2016-11-30T01:30:25.106Z,0
2016-11-30T01:31:24.322Z,0
2016-11-30T01:32:24.318Z,0
2016-11-30T01:33:24.298Z,0
2016-11-30T01:34:24.199Z,0
2016-11-30T01:35:24.549Z,0
2016-11-30T01:36:25.410Z,0
2016-11-30T01:37:24.217Z,0
2016-11-30T01:38:24.276Z,0
2016-11-30T01:39:24.474Z,0
2016-11-30T01:40:24.273Z,0
2016-11-30T01:41:24.276Z,0
2016-11-30T01:42:24.215Z,0
2016-11-30T01:43:24.217Z,0
2016-11-30T01:44:24.249Z,0
2016-11-30T01:45:24.271Z,0
2016-11-30T01:46:24.249Z,0
2016-11-30T01:47:24.225Z,0
2016-11-30T01:48:24.236Z,0
2016-11-30T01:49:24.530Z,0
2016-11-30T01:50:24.245Z,0
2016-11-30T01:51:24.312Z,0
2016-11-30T01:52:24.318Z,0
2016-11-30T01:53:24.197Z,0
2016-11-30T01:54:24.244Z,0
2016-11-30T01:55:24.237Z,0
2016-11-30T01:56:24.207Z,0
2016-11-30T01:57:24.351Z,0
2016-11-30T01:58:24.558Z,0
2016-11-30T01:59:24.550Z,0
2016-11-30T02:00:24.380Z,0
2016-11-30T02:01:24.244Z,0
2016-11-30T02:02:24.451Z,0
2016-11-30T02:03:24.917Z,0
2016-11-30T02:04:24.274Z,0
2016-11-30T02:05:24.247Z,0
2016-11-30T02:06:24.191Z,0
2016-11-30T02:07:25.050Z,0
2016-11-30T02:08:24.366Z,0
2016-11-30T02:09:24.248Z,0
2016-11-30T02:10:24.597Z,0
2016-11-30T02:11:24.216Z,0
2016-11-30T02:12:24.484Z,0
2016-11-30T02:13:24.231Z,0
2016-11-30T02:14:25.022Z,0
2016-11-30T02:15:24.330Z,0
2016-11-30T02:16:24.340Z,0
2016-11-30T02:17:24.525Z,0
2016-11-30T02:18:24.658Z,0
2016-11-30T02:19:24.314Z,0
2016-11-30T02:20:24.189Z,0
2016-11-30T02:21:24.183Z,0
2016-11-30T02:22:24.189Z,0
2016-11-30T02:23:25.044Z,0
2016-11-30T02:24:24.808Z,0
2016-11-30T02:25:24.325Z,0
2016-11-30T02:26:24.399Z,0
2016-11-30T02:27:24.225Z,0
2016-11-30T02:28:24.261Z,0
2016-11-30T02:29:24.197Z,0
2016-11-30T02:30:24.202Z,0
2016-11-30T02:31:25.271Z,0
2016-11-30T02:32:24.403Z,0
2016-11-30T02:33:24.522Z,0
2016-11-30T02:34:24.279Z,0
2016-11-30T02:35:24.424Z,0
2016-11-30T02:36:24.433Z,0
2016-11-30T02:37:24.395Z,0
2016-11-30T02:38:24.287Z,0
2016-11-30T02:39:24.247Z,0
2016-11-30T02:40:24.405Z,0
2016-11-30T02:41:24.812Z,0
2016-11-30T02:42:24.543Z,0
2016-11-30T02:43:24.428Z,0
2016-11-30T02:44:24.395Z,0
2016-11-30T02:45:24.420Z,0
2016-11-30T02:46:24.224Z,0
2016-11-30T02:47:24.173Z,0
2016-11-30T02:48:24.530Z,0
2016-11-30T02:49:24.247Z,0
2016-11-30T02:50:24.245Z,0
2016-11-30T02:51:24.332Z,0
2016-11-30T02:52:24.533Z,0
2016-11-30T02:53:24.233Z,0
2016-11-30T02:54:24.354Z,0
2016-11-30T02:55:24.504Z,0
2016-11-30T02:56:24.436Z,0
2016-11-30T02:57:24.298Z,0
2016-11-30T02:58:24.765Z,0
2016-11-30T02:59:24.237Z,0
2016-11-30T03:00:24.228Z,0
2016-11-30T03:01:24.218Z,0
2016-11-30T03:02:24.268Z,0
2016-11-30T03:03:24.399Z,0
2016-11-30T03:04:24.341Z,0
2016-11-30T03:05:24.505Z,0
2016-11-30T03:06:24.638Z,0
2016-11-30T03:07:24.586Z,0
2016-11-30T03:08:24.695Z,0
2016-11-30T03:09:24.260Z,0
2016-11-30T03:10:24.444Z,0
2016-11-30T03:11:24.293Z,0
2016-11-30T03:12:24.239Z,0
2016-11-30T03:13:24.601Z,0
2016-11-30T03:14:24.338Z,0
2016-11-30T03:15:24.228Z,0
2016-11-30T03:16:24.219Z,0
2016-11-30T03:17:24.390Z,0
2016-11-30T03:18:24.213Z,0
2016-11-30T03:19:24.488Z,0
2016-11-30T03:20:24.437Z,0
2016-11-30T03:21:24.204Z,0
2016-11-30T03:22:24.342Z,0
2016-11-30T03:23:24.351Z,0
2016-11-30T03:24:24.308Z,0
2016-11-30T03:25:24.305Z,0
2016-11-30T03:26:24.808Z,0
2016-11-30T03:27:24.276Z,0
2016-11-30T03:28:24.590Z,0
2016-11-30T03:29:24.241Z,0
2016-11-30T03:30:24.413Z,0
2016-11-30T03:31:24.204Z,0
2016-11-30T03:32:24.843Z,0
2016-11-30T03:33:24.276Z,0
2016-11-30T03:34:24.283Z,0
2016-11-30T03:35:24.262Z,0
2016-11-30T03:36:24.351Z,0
2016-11-30T03:37:24.286Z,0
2016-11-30T03:38:24.249Z,0
2016-11-30T03:39:24.226Z,0
2016-11-30T03:40:24.372Z,0
2016-11-30T03:41:24.302Z,0
2016-11-30T03:42:25.177Z,0
2016-11-30T03:43:37.879Z,0
2016-11-30T03:44:24.222Z,0
2016-11-30T03:45:24.243Z,0
2016-11-30T03:46:24.323Z,0
2016-11-30T03:47:24.419Z,0
2016-11-30T03:48:24.305Z,0
2016-11-30T03:49:24.501Z,0
2016-11-30T03:50:24.251Z,0
2016-11-30T03:51:24.669Z,0
2016-11-30T03:52:24.361Z,0
2016-11-30T03:53:24.384Z,0
2016-11-30T03:54:24.246Z,0
2016-11-30T03:55:24.526Z,0
2016-11-30T03:56:24.558Z,0
2016-11-30T03:57:24.481Z,0
2016-11-30T03:58:24.257Z,0
2016-11-30T03:59:24.259Z,0
2016-11-30T04:00:24.230Z,0
2016-11-30T04:01:24.791Z,0
2016-11-30T04:02:34.894Z,0
2016-11-30T04:03:28.288Z,0
2016-11-30T04:04:34.149Z,0
2016-11-30T04:05:35.116Z,0
2016-11-30T04:06:29.327Z,0
2016-11-30T04:07:36.507Z,0
2016-11-30T04:08:30.447Z,0
2016-11-30T04:09:37.283Z,0
2016-11-30T04:10:33.902Z,0
2016-11-30T04:11:37.629Z,0
2016-11-30T04:12:35.132Z,0
2016-11-30T04:13:37.032Z,0
2016-11-30T04:14:37.065Z,0
2016-11-30T04:15:36.827Z,0
2016-11-30T04:16:37.188Z,0
2016-11-30T04:17:37.085Z,0
2016-11-30T04:18:36.939Z,0
2016-11-30T04:19:37.684Z,0
2016-11-30T04:20:24.286Z,0
2016-11-30T04:21:24.323Z,0
2016-11-30T04:22:24.349Z,0
2016-11-30T04:23:24.682Z,0
2016-11-30T04:24:24.480Z,0
2016-11-30T04:25:24.531Z,0
2016-11-30T04:26:24.656Z,0
2016-11-30T04:27:24.672Z,0
2016-11-30T04:28:24.259Z,0
2016-11-30T04:29:24.295Z,0
2016-11-30T04:30:24.470Z,0
2016-11-30T04:31:24.507Z,0
2016-11-30T04:32:25.210Z,0
2016-11-30T04:33:24.403Z,0
2016-11-30T04:34:24.495Z,0
2016-11-30T04:35:25.221Z,0
2016-11-30T04:36:24.373Z,0
2016-11-30T04:37:24.312Z,0
2016-11-30T04:38:24.427Z,0
2016-11-30T04:39:24.472Z,0
2016-11-30T04:40:24.763Z,0
2016-11-30T04:41:24.264Z,0
2016-11-30T04:42:24.347Z,0
2016-11-30T04:43:24.296Z,0
2016-11-30T04:44:24.265Z,0
2016-11-30T04:45:24.291Z,0
2016-11-30T04:46:24.475Z,0
2016-11-30T04:47:24.276Z,0
2016-11-30T04:48:24.401Z,0
2016-11-30T04:49:24.620Z,0
2016-11-30T04:50:25.104Z,0
2016-11-30T04:51:24.267Z,0
2016-11-30T04:52:24.272Z,0
2016-11-30T04:53:24.429Z,0
2016-11-30T04:54:24.288Z,0
2016-11-30T04:55:24.279Z,0
2016-11-30T04:56:24.285Z,0
2016-11-30T04:57:24.370Z,0
2016-11-30T04:58:24.415Z,0
2016-11-30T04:59:24.347Z,0
2016-11-30T05:00:24.572Z,0
2016-11-30T05:01:24.829Z,0
2016-11-30T05:02:24.277Z,0
2016-11-30T05:03:24.445Z,0
2016-11-30T05:04:24.310Z,0
2016-11-30T05:05:28.929Z,0
2016-11-30T05:06:27.735Z,0
2016-11-30T05:07:25.773Z,0
2016-11-30T05:08:28.032Z,0
2016-11-30T05:09:27.533Z,0
2016-11-30T05:10:27.667Z,0
2016-11-30T05:11:28.638Z,0
2016-11-30T05:12:29.523Z,0
2016-11-30T05:13:24.281Z,0
2016-11-30T05:14:24.280Z,0
2016-11-30T05:15:24.836Z,0
2016-11-30T05:16:24.297Z,0
2016-11-30T05:17:24.732Z,0
2016-11-30T05:18:24.290Z,0
2016-11-30T05:19:24.316Z,0
2016-11-30T05:20:24.335Z,0
2016-11-30T05:21:24.302Z,0
2016-11-30T05:22:24.359Z,0
2016-11-30T05:23:24.324Z,0
2016-11-30T05:24:24.327Z,0
2016-11-30T05:25:24.376Z,0
2016-11-30T05:26:24.318Z,0
2016-11-30T05:27:24.308Z,0
2016-11-30T05:28:24.377Z,0
2016-11-30T05:29:24.326Z,0
2016-11-30T05:30:24.311Z,0
2016-11-30T05:31:24.321Z,0
2016-11-30T05:32:24.324Z,0
2016-11-30T05:33:24.290Z,0
2016-11-30T05:34:24.340Z,0
2016-11-30T05:35:24.304Z,0
2016-11-30T05:36:24.319Z,0
2016-11-30T05:37:24.336Z,0
2016-11-30T05:38:24.329Z,0
2016-11-30T05:39:24.310Z,0
2016-11-30T05:40:24.301Z,0
2016-11-30T05:41:24.295Z,0
2016-11-30T05:42:24.306Z,0
2016-11-30T05:43:25.111Z,0
2016-11-30T05:44:24.337Z,0
2016-11-30T05:45:24.309Z,0
2016-11-30T05:46:24.289Z,0
2016-11-30T05:47:24.309Z,0
2016-11-30T05:48:24.310Z,0
2016-11-30T05:49:24.352Z,0
2016-11-30T05:50:24.341Z,0
2016-11-30T05:51:24.333Z,0
2016-11-30T05:52:24.359Z,0
2016-11-30T05:53:24.418Z,0
2016-11-30T05:54:24.333Z,0
2016-11-30T05:55:24.311Z,0
2016-11-30T05:56:24.322Z,0
2016-11-30T05:57:24.338Z,0
2016-11-30T05:58:24.983Z,0
2016-11-30T05:59:24.349Z,0
2016-11-30T06:00:24.326Z,0
2016-11-30T06:01:24.300Z,0
2016-11-30T06:02:24.318Z,0
2016-11-30T06:03:24.309Z,0
2016-11-30T06:04:24.381Z,0
2016-11-30T06:05:24.319Z,0
2016-11-30T06:06:24.323Z,0
2016-11-30T06:07:24.313Z,0
2016-11-30T06:08:24.337Z,0
2016-11-30T06:09:24.324Z,0
2016-11-30T06:10:24.328Z,0
2016-11-30T06:11:24.318Z,0
2016-11-30T06:12:24.345Z,0
2016-11-30T06:13:24.349Z,0
2016-11-30T06:14:24.337Z,0
2016-11-30T06:15:24.345Z,0
2016-11-30T06:16:24.314Z,0
2016-11-30T06:17:24.336Z,0
2016-11-30T06:18:24.342Z,0
2016-11-30T06:19:24.317Z,0
2016-11-30T06:20:24.330Z,0
2016-11-30T06:21:24.374Z,0
2016-11-30T06:22:24.378Z,0
2016-11-30T06:23:24.379Z,0
2016-11-30T06:24:24.410Z,0
2016-11-30T06:25:24.396Z,0
2016-11-30T06:26:24.335Z,0
2016-11-30T06:27:24.374Z,0
2016-11-30T06:28:24.360Z,0
2016-11-30T06:29:24.334Z,0
2016-11-30T06:30:24.322Z,0
2016-11-30T06:31:24.333Z,0
2016-11-30T06:32:24.334Z,0
2016-11-30T06:33:24.366Z,0
2016-11-30T06:34:24.350Z,0
2016-11-30T06:35:24.326Z,0
2016-11-30T06:36:24.333Z,0
2016-11-30T06:37:24.342Z,0
2016-11-30T06:38:24.334Z,0
2016-11-30T06:39:24.326Z,0
2016-11-30T06:40:24.329Z,0
2016-11-30T06:41:24.325Z,0
2016-11-30T06:42:24.328Z,0
2016-11-30T06:43:24.379Z,0
2016-11-30T06:44:24.418Z,0
2016-11-30T06:45:24.339Z,0
2016-11-30T06:46:24.389Z,0
2016-11-30T06:47:24.362Z,0
2016-11-30T06:48:24.372Z,0
2016-11-30T06:49:24.335Z,0
2016-11-30T06:50:24.382Z,0
2016-11-30T06:51:24.379Z,0
2016-11-30T06:52:24.366Z,0
2016-11-30T06:53:26.351Z,0
2016-11-30T06:54:24.379Z,0
2016-11-30T06:55:24.406Z,0
2016-11-30T06:56:24.441Z,0
2016-11-30T06:57:24.369Z,0
2016-11-30T06:58:24.399Z,0
2016-11-30T06:59:24.418Z,0
2016-11-30T07:00:24.379Z,0
2016-11-30T07:01:24.421Z,0
2016-11-30T07:02:24.404Z,0
2016-11-30T07:03:24.425Z,0
2016-11-30T07:04:24.333Z,0
2016-11-30T07:05:24.383Z,0
2016-11-30T07:06:24.344Z,0
2016-11-30T07:07:24.310Z,0
2016-11-30T07:08:24.359Z,0
2016-11-30T07:09:24.350Z,0
2016-11-30T07:10:24.343Z,0
2016-11-30T07:11:24.377Z,5
2016-11-30T07:12:24.384Z,5
2016-11-30T07:13:24.425Z,5
2016-11-30T07:14:24.347Z,5
2016-11-30T07:15:24.368Z,5
2016-11-30T07:16:24.395Z,5
2016-11-30T07:17:24.371Z,5
2016-11-30T07:18:24.383Z,5
2016-11-30T07:19:24.414Z,5
2016-11-30T07:20:24.369Z,5
2016-11-30T07:21:24.378Z,10
2016-11-30T07:22:24.367Z,10
2016-11-30T07:23:24.397Z,10
2016-11-30T07:24:24.330Z,10
2016-11-30T07:25:24.368Z,10
2016-11-30T07:26:24.388Z,10
2016-11-30T07:27:24.365Z,10
2016-11-30T07:28:24.404Z,15
2016-11-30T07:29:24.428Z,15
2016-11-30T07:30:24.425Z,15
2016-11-30T07:31:24.430Z,15
2016-11-30T07:32:24.371Z,15
2016-11-30T07:33:24.423Z,15
2016-11-30T07:34:24.390Z,15
2016-11-30T07:35:24.472Z,20
2016-11-30T07:36:24.355Z,20
2016-11-30T07:37:24.435Z,20
2016-11-30T07:38:24.391Z,20
2016-11-30T07:39:24.440Z,20
2016-11-30T07:40:24.423Z,20
2016-11-30T07:41:24.363Z,25
2016-11-30T07:42:24.419Z,25
2016-11-30T07:43:24.382Z,25
2016-11-30T07:44:24.395Z,25
2016-11-30T07:45:24.435Z,30
2016-11-30T07:46:34.392Z,30
2016-11-30T07:47:24.385Z,30
2016-11-30T07:48:24.404Z,30
2016-11-30T07:49:24.408Z,35
2016-11-30T07:50:24.356Z,35
2016-11-30T07:51:24.394Z,35
2016-11-30T07:52:24.403Z,35
2016-11-30T07:53:24.407Z,40
2016-11-30T07:54:24.387Z,40
2016-11-30T07:55:24.430Z,40
2016-11-30T07:56:24.435Z,45
2016-11-30T07:57:24.453Z,45
2016-11-30T07:58:24.466Z,45
2016-11-30T07:59:24.774Z,45
2016-11-30T08:00:24.460Z,45
2016-11-30T08:01:24.470Z,45
2016-11-30T08:02:24.434Z,45
2016-11-30T08:03:24.380Z,45
2016-11-30T08:04:24.434Z,45
2016-11-30T08:05:24.390Z,50
2016-11-30T08:06:24.370Z,50
2016-11-30T08:07:24.406Z,50
2016-11-30T08:08:24.445Z,50
2016-11-30T08:09:24.544Z,55
2016-11-30T08:10:24.441Z,55
2016-11-30T08:11:24.443Z,55
2016-11-30T08:12:24.405Z,55
2016-11-30T08:13:24.514Z,55
2016-11-30T08:14:24.463Z,55
2016-11-30T08:15:24.400Z,55
2016-11-30T08:16:24.444Z,55
2016-11-30T08:17:24.487Z,55
2016-11-30T08:18:24.522Z,55
2016-11-30T08:19:24.517Z,55
2016-11-30T08:20:24.452Z,55
2016-11-30T08:21:24.500Z,55
2016-11-30T08:22:24.460Z,60
2016-11-30T08:23:24.469Z,60
2016-11-30T08:24:24.532Z,60
2016-11-30T08:25:24.525Z,60
2016-11-30T08:26:24.481Z,60
2016-11-30T08:27:24.466Z,60
2016-11-30T08:28:24.474Z,65
2016-11-30T08:29:24.475Z,65
2016-11-30T08:30:24.407Z,65
2016-11-30T08:31:24.425Z,65
2016-11-30T08:32:24.372Z,65
2016-11-30T08:33:24.425Z,70
2016-11-30T08:34:24.447Z,70
2016-11-30T08:35:24.403Z,70
2016-11-30T08:36:24.443Z,70
2016-11-30T08:37:24.377Z,70
2016-11-30T08:38:24.441Z,75
2016-11-30T08:39:24.392Z,75
2016-11-30T08:40:24.466Z,75
2016-11-30T08:41:24.408Z,80
2016-11-30T08:42:24.475Z,80
2016-11-30T08:43:24.511Z,80
2016-11-30T08:44:24.466Z,80
2016-11-30T08:45:24.475Z,85
2016-11-30T08:46:24.446Z,85
2016-11-30T08:47:24.415Z,85
2016-11-30T08:48:24.506Z,85
2016-11-30T08:49:24.463Z,90
2016-11-30T08:50:24.420Z,90
2016-11-30T08:51:24.481Z,90
2016-11-30T08:52:24.397Z,90
2016-11-30T08:53:24.402Z,95
2016-11-30T08:54:24.488Z,95
2016-11-30T08:55:24.470Z,95
2016-11-30T08:56:24.464Z,95
2016-11-30T08:57:24.429Z,95
2016-11-30T08:58:24.468Z,95
2016-11-30T08:59:24.412Z,95
2016-11-30T09:00:24.412Z,95
2016-11-30T09:01:24.422Z,95
2016-11-30T09:02:24.414Z,95
2016-11-30T09:03:24.463Z,95
2016-11-30T09:04:24.427Z,95
2016-11-30T09:05:24.405Z,100
2016-11-30T09:06:24.410Z,100
2016-11-30T09:07:24.415Z,100
2016-11-30T09:08:24.425Z,100
2016-11-30T09:09:24.402Z,100
2016-11-30T09:10:24.425Z,105
2016-11-30T09:11:25.176Z,105
2016-11-30T09:12:24.473Z,105
2016-11-30T09:13:24.498Z,110
2016-11-30T09:14:24.462Z,110
2016-11-30T09:15:24.401Z,115
2016-11-30T09:16:24.457Z,115
2016-11-30T09:17:24.438Z,120
2016-11-30T09:18:24.437Z,115
2016-11-30T09:19:24.424Z,120
2016-11-30T09:20:24.476Z,120
2016-11-30T09:21:24.415Z,120
2016-11-30T09:22:24.403Z,120
2016-11-30T09:23:24.494Z,120
2016-11-30T09:24:24.414Z,120
2016-11-30T09:25:24.423Z,120
2016-11-30T09:26:24.497Z,120
2016-11-30T09:27:24.489Z,115
2016-11-30T09:28:24.443Z,120
2016-11-30T09:29:24.478Z,120
2016-11-30T09:30:24.455Z,120
2016-11-30T09:31:24.492Z,120
2016-11-30T09:32:24.443Z,120
2016-11-30T09:33:24.499Z,120
2016-11-30T09:34:24.462Z,120
2016-11-30T09:35:24.515Z,120
2016-11-30T09:36:24.448Z,120
2016-11-30T09:37:24.469Z,125
2016-11-30T09:38:24.510Z,125
2016-11-30T09:39:24.435Z,125
2016-11-30T09:40:24.450Z,125
2016-11-30T09:41:24.469Z,125
2016-11-30T09:42:24.449Z,125
2016-11-30T09:43:24.429Z,125
2016-11-30T09:44:24.441Z,125
2016-11-30T09:45:24.431Z,125
2016-11-30T09:46:24.457Z,125
2016-11-30T09:47:24.432Z,125
2016-11-30T09:48:24.457Z,125
2016-11-30T09:49:24.424Z,130
2016-11-30T09:50:24.445Z,125
2016-11-30T09:51:24.482Z,125
2016-11-30T09:52:24.506Z,130
2016-11-30T09:53:24.496Z,130
2016-11-30T09:54:24.496Z,130
2016-11-30T09:55:24.488Z,130
2016-11-30T09:56:24.438Z,135
2016-11-30T09:57:24.445Z,135
2016-11-30T09:58:24.594Z,135
2016-11-30T09:59:24.421Z,135
2016-11-30T10:00:24.471Z,140
2016-11-30T10:01:24.528Z,135
2016-11-30T10:02:24.582Z,130
2016-11-30T10:03:24.506Z,130
2016-11-30T10:04:24.428Z,130
2016-11-30T10:05:24.513Z,130
2016-11-30T10:06:24.477Z,125
2016-11-30T10:07:24.447Z,125
2016-11-30T10:08:24.478Z,125
2016-11-30T10:09:24.475Z,130
2016-11-30T10:10:24.538Z,125
2016-11-30T10:11:24.495Z,130
2016-11-30T10:12:24.528Z,130
2016-11-30T10:13:24.511Z,130
2016-11-30T10:14:24.553Z,130
2016-11-30T10:15:24.498Z,130
2016-11-30T10:16:24.477Z,130
2016-11-30T10:17:24.490Z,135
2016-11-30T10:18:24.552Z,140
2016-11-30T10:19:24.501Z,150
2016-11-30T10:20:24.552Z,155
2016-11-30T10:21:24.504Z,155
2016-11-30T10:22:24.506Z,150
2016-11-30T10:23:24.498Z,150
2016-11-30T10:24:24.435Z,145
2016-11-30T10:25:24.462Z,150
2016-11-30T10:26:24.503Z,160
2016-11-30T10:27:24.475Z,170
2016-11-30T10:28:24.530Z,175
2016-11-30T10:29:24.528Z,190
2016-11-30T10:30:24.515Z,195
2016-11-30T10:31:24.484Z,185
2016-11-30T10:32:24.515Z,175
2016-11-30T10:33:24.523Z,165
2016-11-30T10:34:24.459Z,155
2016-11-30T10:35:24.475Z,155
2016-11-30T10:36:24.505Z,150
2016-11-30T10:37:24.496Z,140
2016-11-30T10:38:24.498Z,130
2016-11-30T10:39:24.499Z,130
2016-11-30T10:40:24.510Z,125
2016-11-30T10:41:24.496Z,120
2016-11-30T10:42:24.475Z,120
2016-11-30T10:43:24.490Z,120
2016-11-30T10:44:24.491Z,115
2016-11-30T10:45:24.515Z,105
2016-11-30T10:46:24.603Z,100
2016-11-30T10:47:24.478Z,100
2016-11-30T10:48:24.556Z,90
2016-11-30T10:49:24.459Z,90
2016-11-30T10:50:25.077Z,85
2016-11-30T10:51:24.713Z,80
2016-11-30T10:52:25.915Z,80
2016-11-30T10:53:25.115Z,80
2016-11-30T10:54:24.533Z,75
2016-11-30T10:55:24.484Z,70
2016-11-30T10:56:24.507Z,70
2016-11-30T10:57:24.555Z,65
2016-11-30T10:58:24.530Z,65
2016-11-30T10:59:24.695Z,65
2016-11-30T11:00:24.971Z,65
2016-11-30T11:01:24.750Z,65
2016-11-30T11:02:24.943Z,65
2016-11-30T11:03:24.723Z,65
2016-11-30T11:04:24.748Z,60
2016-11-30T11:05:25.843Z,60
2016-11-30T11:06:24.827Z,60
2016-11-30T11:07:24.776Z,55
2016-11-30T11:08:24.635Z,50
2016-11-30T11:09:24.660Z,55
2016-11-30T11:10:24.707Z,60
2016-11-30T11:11:25.094Z,55
2016-11-30T11:12:24.560Z,55
2016-11-30T11:13:24.606Z,55
2016-11-30T11:14:24.744Z,65
2016-11-30T11:15:25.667Z,65
2016-11-30T11:16:24.729Z,65
2016-11-30T11:17:24.514Z,65
2016-11-30T11:18:24.558Z,60
2016-11-30T11:19:26.168Z,55
2016-11-30T11:20:24.608Z,55
2016-11-30T11:21:24.633Z,60
2016-11-30T11:22:24.824Z,55
2016-11-30T11:23:24.822Z,60
2016-11-30T11:24:25.033Z,60
2016-11-30T11:25:24.821Z,65
2016-11-30T11:26:24.684Z,65
2016-11-30T11:27:24.559Z,65
2016-11-30T11:28:24.651Z,65
2016-11-30T11:29:24.600Z,65
2016-11-30T11:30:24.786Z,65
2016-11-30T11:31:24.632Z,70
2016-11-30T11:32:24.680Z,75
2016-11-30T11:33:24.971Z,80
2016-11-30T11:34:24.620Z,80
2016-11-30T11:35:24.597Z,75
2016-11-30T11:36:24.627Z,80
2016-11-30T11:37:24.552Z,80
2016-11-30T11:38:24.792Z,85
2016-11-30T11:39:24.636Z,90
2016-11-30T11:40:24.681Z,80
2016-11-30T11:41:24.801Z,65
2016-11-30T11:42:24.683Z,85
2016-11-30T11:43:25.943Z,80
2016-11-30T11:44:24.690Z,75
2016-11-30T11:45:25.060Z,90
2016-11-30T11:46:24.687Z,90
2016-11-30T11:47:24.711Z,95
2016-11-30T11:48:24.868Z,95
2016-11-30T11:49:24.719Z,100
2016-11-30T11:50:24.836Z,95
2016-11-30T11:51:25.844Z,95
2016-11-30T11:52:25.361Z,95
2016-11-30T11:53:24.601Z,95
2016-11-30T11:54:24.881Z,95
2016-11-30T11:55:24.792Z,90
2016-11-30T11:56:24.636Z,90
2016-11-30T11:57:24.756Z,80
2016-11-30T11:58:24.766Z,80
2016-11-30T11:59:24.757Z,75
2016-11-30T12:00:24.723Z,75
2016-11-30T12:01:24.567Z,70
2016-11-30T12:02:24.612Z,65
2016-11-30T12:03:24.681Z,60
2016-11-30T12:04:24.729Z,50
2016-11-30T12:05:24.558Z,60
2016-11-30T12:06:24.626Z,55
2016-11-30T12:07:24.823Z,55
2016-11-30T12:08:24.613Z,55
2016-11-30T12:09:24.732Z,55
2016-11-30T12:10:24.580Z,60
2016-11-30T12:11:24.609Z,65
2016-11-30T12:12:24.607Z,70
2016-11-30T12:13:24.725Z,75
2016-11-30T12:14:24.657Z,75
2016-11-30T12:15:24.746Z,75
2016-11-30T12:16:24.565Z,70
2016-11-30T12:17:24.639Z,65
2016-11-30T12:18:24.631Z,65
2016-11-30T12:19:24.529Z,65
2016-11-30T12:20:24.669Z,60
2016-11-30T12:21:24.641Z,65
2016-11-30T12:22:24.537Z,65
2016-11-30T12:23:24.613Z,60
2016-11-30T12:24:24.840Z,65
2016-11-30T12:25:24.602Z,60
2016-11-30T12:26:24.669Z,65
2016-11-30T12:27:24.666Z,60
2016-11-30T12:28:24.722Z,60
2016-11-30T12:29:24.597Z,65
2016-11-30T12:30:24.575Z,65
2016-11-30T12:31:24.829Z,60
2016-11-30T12:32:24.637Z,55
2016-11-30T12:33:24.632Z,55
2016-11-30T12:34:24.535Z,50
2016-11-30T12:35:24.601Z,55
2016-11-30T12:36:24.612Z,45
2016-11-30T12:37:24.642Z,45
2016-11-30T12:38:24.650Z,45
2016-11-30T12:39:24.569Z,45
2016-11-30T12:40:24.596Z,45
2016-11-30T12:41:24.617Z,45
2016-11-30T12:42:24.628Z,45
2016-11-30T12:45:03.353Z,45
2016-11-30T12:45:13.422Z,45
2016-11-30T12:46:13.447Z,45
2016-11-30T12:47:13.327Z,45
2016-11-30T12:48:13.287Z,50
2016-11-30T12:49:13.393Z,50
2016-11-30T12:50:13.267Z,50
2016-11-30T12:51:13.301Z,50
2016-11-30T12:52:13.295Z,55
2016-11-30T12:53:13.313Z,55
2016-11-30T12:54:13.377Z,55
2016-11-30T12:55:13.326Z,55
2016-11-30T12:56:13.295Z,45
2016-11-30T12:57:13.308Z,45
2016-11-30T12:58:13.301Z,40
2016-11-30T12:59:13.336Z,40
2016-11-30T13:00:13.331Z,45
2016-11-30T13:01:13.372Z,45
2016-11-30T13:02:13.275Z,50
2016-11-30T13:03:13.324Z,50
2016-11-30T13:04:13.647Z,45
2016-11-30T13:05:13.324Z,45
2016-11-30T13:06:13.379Z,45
2016-11-30T13:07:13.339Z,45
2016-11-30T13:08:13.354Z,45
2016-11-30T13:09:13.353Z,45
2016-11-30T13:10:13.377Z,45
2016-11-30T13:11:13.292Z,45
2016-11-30T13:12:13.299Z,40
2016-11-30T13:13:13.350Z,40
2016-11-30T13:14:13.319Z,40
2016-11-30T13:15:13.367Z,40
2016-11-30T13:16:13.360Z,45
2016-11-30T13:17:13.356Z,45
2016-11-30T13:18:17.456Z,50
2016-11-30T13:19:19.362Z,45
2016-11-30T13:20:18.984Z,40
2016-11-30T13:21:20.575Z,40
2016-11-30T13:22:18.789Z,40
2016-11-30T13:23:19.285Z,45
2016-11-30T13:24:17.878Z,45
2016-11-30T13:25:18.105Z,50
2016-11-30T13:26:17.171Z,50
2016-11-30T13:27:16.047Z,45
2016-11-30T13:28:17.992Z,40
2016-11-30T13:29:17.419Z,40
2016-11-30T13:30:18.373Z,40
2016-11-30T13:31:18.323Z,40
2016-11-30T13:32:18.855Z,35
2016-11-30T13:33:16.486Z,35
2016-11-30T13:34:16.011Z,30
2016-11-30T13:35:17.913Z,30
2016-11-30T13:36:18.545Z,35
2016-11-30T13:37:18.165Z,50
2016-11-30T13:38:16.757Z,45
2016-11-30T13:39:16.043Z,45
2016-11-30T13:40:16.513Z,40
2016-11-30T13:41:17.082Z,30
2016-11-30T13:42:20.000Z,30
2016-11-30T13:43:16.991Z,25
2016-11-30T13:44:17.174Z,25
2016-11-30T13:45:17.257Z,25
2016-11-30T13:46:17.516Z,30
2016-11-30T13:47:18.302Z,40
2016-11-30T13:48:20.833Z,40
2016-11-30T13:49:17.428Z,35
2016-11-30T13:50:16.323Z,30
2016-11-30T13:51:17.548Z,30
2016-11-30T13:52:13.470Z,30
2016-11-30T13:53:15.902Z,25
2016-11-30T13:54:17.076Z,25
2016-11-30T13:55:16.329Z,20
2016-11-30T13:56:19.028Z,25
2016-11-30T13:57:18.043Z,15
2016-11-30T13:58:20.267Z,15
2016-11-30T13:59:17.612Z,15
2016-11-30T14:00:18.626Z,20
2016-11-30T14:01:20.747Z,20
2016-11-30T14:02:20.358Z,20
2016-11-30T14:03:19.755Z,25
2016-11-30T14:04:16.675Z,20
2016-11-30T14:05:18.970Z,20
2016-11-30T14:06:19.345Z,20
2016-11-30T14:07:16.738Z,20
2016-11-30T14:08:17.975Z,15
2016-11-30T14:09:16.682Z,15
2016-11-30T14:10:17.374Z,15
2016-11-30T14:11:18.415Z,15
2016-11-30T14:12:18.546Z,15
2016-11-30T14:13:18.304Z,15
2016-11-30T14:14:17.138Z,20
2016-11-30T14:15:21.581Z,15
2016-11-30T14:16:18.906Z,15
2016-11-30T14:17:16.765Z,15
2016-11-30T14:18:13.539Z,10
2016-11-30T14:19:17.593Z,10
2016-11-30T14:20:19.408Z,10
2016-11-30T14:21:16.472Z,10
2016-11-30T14:22:19.617Z,10
2016-11-30T14:23:18.773Z,10
2016-11-30T14:24:16.714Z,15
2016-11-30T14:25:16.440Z,15
2016-11-30T14:26:18.373Z,10
2016-11-30T14:27:19.787Z,5
2016-11-30T14:28:21.133Z,5
2016-11-30T14:29:17.168Z,10
2016-11-30T14:30:15.594Z,5
2016-11-30T14:31:16.776Z,5
2016-11-30T14:32:17.765Z,5